createdAt,value
2023-08-08T00:00:36.835Z,19.9
2023-08-08T00:20:36.656Z,19.9
2023-08-08T00:40:36.208Z,19.8
2023-08-08T01:00:37.373Z,19.8
2023-08-08T01:20:34.940Z,19.7
2023-08-08T01:40:35.138Z,19.6
2023-08-08T02:00:37.968Z,19.5
2023-08-08T02:20:35.782Z,19.4
2023-08-08T02:40:35.339Z,19.4
2023-08-08T03:00:35.513Z,19.3
2023-08-08T03:20:35.306Z,19.3
2023-08-08T03:40:35.953Z,19.2
2023-08-08T04:00:35.473Z,19.2
2023-08-08T04:20:55.581Z,19.2
2023-08-08T04:40:54.018Z,19.2
2023-08-08T05:00:52.776Z,19.2
2023-08-08T05:20:54.872Z,19.2
2023-08-08T05:41:06.383Z,19.3
2023-08-08T06:00:53.572Z,19.2
2023-08-08T06:20:55.897Z,19.3
2023-08-08T06:40:59.614Z,19.4
2023-08-08T07:00:52.351Z,19.3
2023-08-08T07:20:54.125Z,19.4
2023-08-08T07:40:56.707Z,19.4
2023-08-08T08:00:51.899Z,19.4
2023-08-08T08:20:53.356Z,19.5
2023-08-08T08:40:53.555Z,19.5
2023-08-08T09:00:59.920Z,19.6
2023-08-08T09:20:52.926Z,19.6
2023-08-08T09:40:53.122Z,19.7
2023-08-08T10:00:51.820Z,19.8
2023-08-08T10:20:52.507Z,19.8
2023-08-08T10:40:58.924Z,20
2023-08-08T11:00:56.284Z,20
2023-08-08T11:21:02.349Z,20.1
2023-08-08T11:40:54.055Z,20.1
2023-08-08T12:00:50.710Z,20.2
2023-08-08T12:20:56.012Z,20.4
2023-08-08T12:40:54.779Z,20.3
2023-08-08T13:00:53.916Z,20.5
2023-08-08T13:21:13.526Z,20.6
2023-08-08T13:40:52.750Z,20.6
2023-08-08T14:00:52.281Z,20.7
2023-08-08T14:20:53.249Z,20.8
2023-08-08T14:40:52.952Z,21
2023-08-08T15:00:49.055Z,21
2023-08-08T15:20:51.869Z,21.1
2023-08-08T15:40:51.825Z,21.2
2023-08-08T16:00:54.119Z,21.3
2023-08-08T16:20:53.569Z,21.4
2023-08-08T16:41:09.927Z,21.7
2023-08-08T17:00:56.778Z,21.6
2023-08-08T17:20:53.318Z,21.9
2023-08-08T17:40:52.177Z,22
2023-08-08T18:00:51.137Z,22.1
2023-08-08T18:20:57.445Z,22.1
2023-08-08T18:40:53.117Z,22.1
2023-08-08T19:00:35.891Z,22.1
2023-08-08T19:20:35.925Z,22.1
2023-08-08T19:40:36.316Z,22.1
2023-08-08T20:00:35.611Z,22.1
2023-08-08T20:20:37.348Z,22
2023-08-08T20:40:35.368Z,22
2023-08-08T21:00:37.656Z,22
2023-08-08T21:20:37.868Z,21.9
2023-08-08T21:40:35.606Z,21.8
2023-08-08T22:00:43.360Z,21.7
2023-08-08T22:20:37.488Z,21.7
2023-08-08T22:40:35.678Z,21.6
2023-08-08T23:00:36.122Z,21.6
2023-08-08T23:20:36.292Z,21.5
2023-08-08T23:40:34.787Z,21.4
